To NAV CANADA Home Page Login to a new session Search on AWWS site Feedback and Comments Disclaimer Vers la page française équivalente Tips FAQ What's new on the site To the Forecasts and Observations / NOTAM section To "File a Flight Plan" website Publications and other links Update of the User's profile FIC Telephone Numbers My Weather Data Folder Route Weather Data Regional Weather Data Local Weather Data To the Forecasts and Observations / NOTAM section
Request Generated 07/04/2015 at 13:35:28 UTC . Weather information available at that time is displayed.

METAR/TAF

LA RONGE/LA RONGE (BARBER FIELD)/SK    

METAR CYVC 041300Z 30002KT 3/8SM FU VV002 16/09 A2975 RMK FU8 SLP079
DENSITY ALT 1800FT=
METAR CYVC 041200Z 31005KT 3/8SM FU VV003 15/08 A2974 RMK FU8 SLP072
DENSITY ALT 1700FT=
METAR CYVC 041100Z 28002KT 3/4SM FU VV005 15/07 A2973 RMK FU8 SLP068
DENSITY ALT 1700FT=

TAF CYVC 041238Z 0413/0501 31005KT 3/4SM FU VV003 TEMPO 0413/0416 3SM
FU BKN080
FM041600 32008KT 2SM FU BKN080 TEMPO 0416/0501 6SM FU SCT080
RMK NXT FCST BY 041900Z=
Your time UTC time
Weather data provided by Environment Canada and NAV CANADA